sensor_id;sensor_type;location;lat;lon;timestamp;P1;durP1;ratioP1;P2;durP2;ratioP2
19919;SDS011;10122;50.074;19.920;2022-12-18T00:01:24;55.93;;;17.67;;
19919;SDS011;10122;50.074;19.920;2022-12-18T00:03:50;58.40;;;17.93;;
19919;SDS011;10122;50.074;19.920;2022-12-18T00:06:17;60.10;;;18.27;;
19919;SDS011;10122;50.074;19.920;2022-12-18T00:08:44;58.13;;;18.80;;
19919;SDS011;10122;50.074;19.920;2022-12-18T00:11:11;62.57;;;19.63;;
19919;SDS011;10122;50.074;19.920;2022-12-18T00:13:38;59.47;;;18.87;;
19919;SDS011;10122;50.074;19.920;2022-12-18T00:16:05;51.37;;;17.00;;
19919;SDS011;10122;50.074;19.920;2022-12-18T00:18:36;58.60;;;18.97;;
19919;SDS011;10122;50.074;19.920;2022-12-18T00:21:03;56.87;;;17.90;;
19919;SDS011;10122;50.074;19.920;2022-12-18T00:23:31;59.90;;;18.47;;
19919;SDS011;10122;50.074;19.920;2022-12-18T00:26:01;61.30;;;18.73;;
19919;SDS011;10122;50.074;19.920;2022-12-18T00:28:28;57.13;;;17.83;;
19919;SDS011;10122;50.074;19.920;2022-12-18T00:31:03;57.77;;;17.33;;
19919;SDS011;10122;50.074;19.920;2022-12-18T00:33:31;53.20;;;17.40;;
19919;SDS011;10122;50.074;19.920;2022-12-18T00:36:07;48.67;;;16.63;;
19919;SDS011;10122;50.074;19.920;2022-12-18T00:38:44;55.43;;;18.47;;
19919;SDS011;10122;50.074;19.920;2022-12-18T00:41:10;55.90;;;17.07;;
19919;SDS011;10122;50.074;19.920;2022-12-18T00:43:37;52.07;;;17.13;;
19919;SDS011;10122;50.074;19.920;2022-12-18T00:46:03;56.13;;;17.10;;
19919;SDS011;10122;50.074;19.920;2022-12-18T00:48:29;51.33;;;16.23;;
19919;SDS011;10122;50.074;19.920;2022-12-18T00:50:55;52.63;;;17.20;;
19919;SDS011;10122;50.074;19.920;2022-12-18T00:53:20;53.60;;;16.77;;
19919;SDS011;10122;50.074;19.920;2022-12-18T00:55:46;46.33;;;17.50;;
19919;SDS011;10122;50.074;19.920;2022-12-18T00:58:13;41.10;;;15.37;;
19919;SDS011;10122;50.074;19.920;2022-12-18T01:00:40;43.90;;;15.43;;
19919;SDS011;10122;50.074;19.920;2022-12-18T01:03:06;49.53;;;15.73;;
19919;SDS011;10122;50.074;19.920;2022-12-18T01:05:32;47.40;;;16.23;;
19919;SDS011;10122;50.074;19.920;2022-12-18T01:07:58;47.63;;;16.37;;
19919;SDS011;10122;50.074;19.920;2022-12-18T01:10:24;53.10;;;17.53;;
19919;SDS011;10122;50.074;19.920;2022-12-18T01:12:51;51.00;;;17.67;;
19919;SDS011;10122;50.074;19.920;2022-12-18T01:15:16;48.60;;;16.03;;
19919;SDS011;10122;50.074;19.920;2022-12-18T01:17:43;55.83;;;17.50;;
19919;SDS011;10122;50.074;19.920;2022-12-18T01:20:10;52.67;;;17.27;;
19919;SDS011;10122;50.074;19.920;2022-12-18T01:22:37;57.67;;;18.17;;
19919;SDS011;10122;50.074;19.920;2022-12-18T01:25:03;51.00;;;18.10;;
19919;SDS011;10122;50.074;19.920;2022-12-18T01:27:30;53.70;;;16.60;;
19919;SDS011;10122;50.074;19.920;2022-12-18T01:29:56;57.77;;;18.63;;
19919;SDS011;10122;50.074;19.920;2022-12-18T01:32:21;53.97;;;16.83;;
19919;SDS011;10122;50.074;19.920;2022-12-18T01:34:47;49.83;;;16.53;;
19919;SDS011;10122;50.074;19.920;2022-12-18T01:37:13;50.53;;;16.70;;
19919;SDS011;10122;50.074;19.920;2022-12-18T01:39:39;50.50;;;17.13;;
19919;SDS011;10122;50.074;19.920;2022-12-18T01:42:10;52.37;;;16.40;;
19919;SDS011;10122;50.074;19.920;2022-12-18T01:47:35;53.60;;;18.03;;
19919;SDS011;10122;50.074;19.920;2022-12-18T01:50:17;52.33;;;16.67;;
19919;SDS011;10122;50.074;19.920;2022-12-18T01:52:50;48.33;;;16.97;;
19919;SDS011;10122;50.074;19.920;2022-12-18T01:55:47;53.50;;;17.77;;
19919;SDS011;10122;50.074;19.920;2022-12-18T01:58:26;48.23;;;16.87;;
19919;SDS011;10122;50.074;19.920;2022-12-18T02:01:02;51.47;;;17.43;;
19919;SDS011;10122;50.074;19.920;2022-12-18T02:03:28;53.27;;;17.33;;
19919;SDS011;10122;50.074;19.920;2022-12-18T02:08:52;54.87;;;17.63;;
19919;SDS011;10122;50.074;19.920;2022-12-18T02:16:39;49.37;;;16.60;;
19919;SDS011;10122;50.074;19.920;2022-12-18T02:19:28;49.23;;;15.87;;
19919;SDS011;10122;50.074;19.920;2022-12-18T02:24:45;48.17;;;16.03;;
19919;SDS011;10122;50.074;19.920;2022-12-18T02:27:28;47.37;;;15.90;;
19919;SDS011;10122;50.074;19.920;2022-12-18T02:29:56;41.07;;;13.50;;
19919;SDS011;10122;50.074;19.920;2022-12-18T02:32:25;44.80;;;15.70;;
19919;SDS011;10122;50.074;19.920;2022-12-18T02:34:55;38.17;;;13.23;;
19919;SDS011;10122;50.074;19.920;2022-12-18T02:37:23;45.77;;;16.07;;
19919;SDS011;10122;50.074;19.920;2022-12-18T02:39:51;47.60;;;15.80;;
19919;SDS011;10122;50.074;19.920;2022-12-18T02:42:20;47.37;;;15.40;;
19919;SDS011;10122;50.074;19.920;2022-12-18T02:44:48;44.67;;;15.03;;
19919;SDS011;10122;50.074;19.920;2022-12-18T02:47:17;46.60;;;15.47;;
19919;SDS011;10122;50.074;19.920;2022-12-18T02:50:02;42.23;;;15.37;;
19919;SDS011;10122;50.074;19.920;2022-12-18T02:58:17;50.10;;;16.63;;
19919;SDS011;10122;50.074;19.920;2022-12-18T03:00:58;53.43;;;16.97;;
19919;SDS011;10122;50.074;19.920;2022-12-18T03:03:35;47.27;;;16.07;;
19919;SDS011;10122;50.074;19.920;2022-12-18T03:06:28;47.20;;;15.30;;
19919;SDS011;10122;50.074;19.920;2022-12-18T03:08:59;49.07;;;15.77;;
19919;SDS011;10122;50.074;19.920;2022-12-18T03:11:32;47.60;;;15.33;;
19919;SDS011;10122;50.074;19.920;2022-12-18T03:14:17;46.27;;;15.30;;
19919;SDS011;10122;50.074;19.920;2022-12-18T03:16:47;48.47;;;15.03;;
19919;SDS011;10122;50.074;19.920;2022-12-18T03:19:18;51.87;;;17.13;;
19919;SDS011;10122;50.074;19.920;2022-12-18T03:21:47;50.87;;;16.33;;
19919;SDS011;10122;50.074;19.920;2022-12-18T03:24:16;43.87;;;15.63;;
19919;SDS011;10122;50.074;19.920;2022-12-18T03:26:44;50.27;;;16.13;;
19919;SDS011;10122;50.074;19.920;2022-12-18T03:29:14;52.23;;;16.23;;
19919;SDS011;10122;50.074;19.920;2022-12-18T03:31:47;46.37;;;15.80;;
19919;SDS011;10122;50.074;19.920;2022-12-18T03:34:17;46.97;;;16.03;;
19919;SDS011;10122;50.074;19.920;2022-12-18T03:36:48;44.20;;;15.70;;
19919;SDS011;10122;50.074;19.920;2022-12-18T03:39:14;50.83;;;16.63;;
19919;SDS011;10122;50.074;19.920;2022-12-18T03:41:43;52.20;;;17.13;;
19919;SDS011;10122;50.074;19.920;2022-12-18T03:52:32;55.10;;;17.13;;
19919;SDS011;10122;50.074;19.920;2022-12-18T03:55:07;45.73;;;15.30;;
19919;SDS011;10122;50.074;19.920;2022-12-18T03:57:34;47.63;;;14.80;;
19919;SDS011;10122;50.074;19.920;2022-12-18T04:00:04;49.03;;;15.60;;
19919;SDS011;10122;50.074;19.920;2022-12-18T04:02:31;44.73;;;14.00;;
19919;SDS011;10122;50.074;19.920;2022-12-18T04:05:00;46.63;;;15.70;;
19919;SDS011;10122;50.074;19.920;2022-12-18T04:07:28;45.47;;;14.70;;
19919;SDS011;10122;50.074;19.920;2022-12-18T04:09:55;40.73;;;13.10;;
19919;SDS011;10122;50.074;19.920;2022-12-18T04:12:24;47.53;;;16.57;;
19919;SDS011;10122;50.074;19.920;2022-12-18T04:14:54;53.03;;;17.07;;
19919;SDS011;10122;50.074;19.920;2022-12-18T04:17:20;51.13;;;16.63;;
19919;SDS011;10122;50.074;19.920;2022-12-18T04:19:46;45.87;;;15.87;;
19919;SDS011;10122;50.074;19.920;2022-12-18T04:22:12;52.57;;;17.27;;
19919;SDS011;10122;50.074;19.920;2022-12-18T04:24:38;45.60;;;15.73;;
19919;SDS011;10122;50.074;19.920;2022-12-18T04:27:03;46.20;;;15.57;;
19919;SDS011;10122;50.074;19.920;2022-12-18T04:29:29;50.20;;;16.00;;
19919;SDS011;10122;50.074;19.920;2022-12-18T04:31:55;45.27;;;16.33;;
19919;SDS011;10122;50.074;19.920;2022-12-18T04:34:21;52.37;;;16.20;;
19919;SDS011;10122;50.074;19.920;2022-12-18T04:36:47;39.57;;;14.37;;
19919;SDS011;10122;50.074;19.920;2022-12-18T04:39:13;43.80;;;15.10;;
19919;SDS011;10122;50.074;19.920;2022-12-18T04:41:39;46.47;;;15.23;;
19919;SDS011;10122;50.074;19.920;2022-12-18T04:44:04;46.93;;;14.77;;
19919;SDS011;10122;50.074;19.920;2022-12-18T04:46:30;48.90;;;16.67;;
19919;SDS011;10122;50.074;19.920;2022-12-18T04:48:56;53.70;;;17.17;;
19919;SDS011;10122;50.074;19.920;2022-12-18T04:51:21;52.87;;;16.70;;
19919;SDS011;10122;50.074;19.920;2022-12-18T04:53:47;49.77;;;16.50;;
19919;SDS011;10122;50.074;19.920;2022-12-18T04:56:13;41.83;;;14.87;;
19919;SDS011;10122;50.074;19.920;2022-12-18T04:58:40;49.27;;;16.23;;
19919;SDS011;10122;50.074;19.920;2022-12-18T05:01:07;52.47;;;17.40;;
19919;SDS011;10122;50.074;19.920;2022-12-18T05:03:34;46.03;;;15.47;;
19919;SDS011;10122;50.074;19.920;2022-12-18T05:06:01;43.73;;;14.87;;
19919;SDS011;10122;50.074;19.920;2022-12-18T05:08:26;47.60;;;15.70;;
19919;SDS011;10122;50.074;19.920;2022-12-18T05:11:03;47.27;;;14.27;;
19919;SDS011;10122;50.074;19.920;2022-12-18T05:13:31;48.83;;;16.50;;
19919;SDS011;10122;50.074;19.920;2022-12-18T05:15:57;48.37;;;16.30;;
19919;SDS011;10122;50.074;19.920;2022-12-18T05:18:23;44.97;;;15.27;;
19919;SDS011;10122;50.074;19.920;2022-12-18T05:20:50;53.07;;;16.47;;
19919;SDS011;10122;50.074;19.920;2022-12-18T05:23:17;55.17;;;16.73;;
19919;SDS011;10122;50.074;19.920;2022-12-18T05:25:46;49.47;;;15.43;;
19919;SDS011;10122;50.074;19.920;2022-12-18T05:28:15;50.60;;;15.83;;
19919;SDS011;10122;50.074;19.920;2022-12-18T05:30:41;41.97;;;14.43;;
19919;SDS011;10122;50.074;19.920;2022-12-18T05:33:07;44.63;;;14.43;;
19919;SDS011;10122;50.074;19.920;2022-12-18T05:35:32;49.73;;;15.30;;
19919;SDS011;10122;50.074;19.920;2022-12-18T05:37:58;45.20;;;13.47;;
19919;SDS011;10122;50.074;19.920;2022-12-18T05:40:24;49.43;;;15.47;;
19919;SDS011;10122;50.074;19.920;2022-12-18T05:42:49;46.30;;;16.40;;
19919;SDS011;10122;50.074;19.920;2022-12-18T05:45:15;51.57;;;16.77;;
19919;SDS011;10122;50.074;19.920;2022-12-18T05:47:40;51.37;;;16.60;;
19919;SDS011;10122;50.074;19.920;2022-12-18T05:50:06;53.13;;;16.50;;
19919;SDS011;10122;50.074;19.920;2022-12-18T05:52:32;45.60;;;14.63;;
19919;SDS011;10122;50.074;19.920;2022-12-18T05:54:58;46.63;;;15.53;;
19919;SDS011;10122;50.074;19.920;2022-12-18T05:57:24;49.70;;;15.63;;
19919;SDS011;10122;50.074;19.920;2022-12-18T05:59:49;51.03;;;14.80;;
19919;SDS011;10122;50.074;19.920;2022-12-18T06:02:15;53.50;;;16.73;;
19919;SDS011;10122;50.074;19.920;2022-12-18T06:04:41;50.47;;;16.40;;
19919;SDS011;10122;50.074;19.920;2022-12-18T06:07:07;57.67;;;17.03;;
19919;SDS011;10122;50.074;19.920;2022-12-18T06:09:32;50.87;;;16.13;;
19919;SDS011;10122;50.074;19.920;2022-12-18T06:11:58;43.37;;;14.87;;
19919;SDS011;10122;50.074;19.920;2022-12-18T06:14:24;55.03;;;17.07;;
19919;SDS011;10122;50.074;19.920;2022-12-18T06:16:50;49.60;;;16.17;;
19919;SDS011;10122;50.074;19.920;2022-12-18T06:19:17;54.00;;;17.27;;
19919;SDS011;10122;50.074;19.920;2022-12-18T06:21:43;53.13;;;17.13;;
19919;SDS011;10122;50.074;19.920;2022-12-18T06:24:08;55.07;;;15.90;;
19919;SDS011;10122;50.074;19.920;2022-12-18T06:26:36;53.80;;;16.20;;
19919;SDS011;10122;50.074;19.920;2022-12-18T06:29:03;55.13;;;16.07;;
19919;SDS011;10122;50.074;19.920;2022-12-18T06:31:29;54.03;;;15.97;;
19919;SDS011;10122;50.074;19.920;2022-12-18T06:33:55;47.20;;;15.30;;
19919;SDS011;10122;50.074;19.920;2022-12-18T06:36:20;52.80;;;14.93;;
19919;SDS011;10122;50.074;19.920;2022-12-18T06:38:46;46.70;;;15.97;;
19919;SDS011;10122;50.074;19.920;2022-12-18T06:41:13;50.07;;;17.13;;
19919;SDS011;10122;50.074;19.920;2022-12-18T06:43:40;45.63;;;14.93;;
19919;SDS011;10122;50.074;19.920;2022-12-18T06:46:06;53.63;;;17.60;;
19919;SDS011;10122;50.074;19.920;2022-12-18T06:48:33;47.93;;;16.27;;
19919;SDS011;10122;50.074;19.920;2022-12-18T06:50:59;52.17;;;16.70;;
19919;SDS011;10122;50.074;19.920;2022-12-18T06:53:24;54.20;;;17.40;;
19919;SDS011;10122;50.074;19.920;2022-12-18T06:55:50;51.17;;;16.10;;
19919;SDS011;10122;50.074;19.920;2022-12-18T06:58:16;51.87;;;16.83;;
19919;SDS011;10122;50.074;19.920;2022-12-18T07:00:42;53.40;;;15.93;;
19919;SDS011;10122;50.074;19.920;2022-12-18T07:03:08;47.17;;;14.67;;
19919;SDS011;10122;50.074;19.920;2022-12-18T07:05:34;55.37;;;17.03;;
19919;SDS011;10122;50.074;19.920;2022-12-18T07:08:04;57.00;;;17.97;;
19919;SDS011;10122;50.074;19.920;2022-12-18T07:10:29;49.07;;;16.50;;
19919;SDS011;10122;50.074;19.920;2022-12-18T07:12:55;54.00;;;16.77;;
19919;SDS011;10122;50.074;19.920;2022-12-18T07:15:21;52.63;;;17.57;;
19919;SDS011;10122;50.074;19.920;2022-12-18T07:17:46;51.57;;;15.97;;
19919;SDS011;10122;50.074;19.920;2022-12-18T07:20:12;57.40;;;17.80;;
19919;SDS011;10122;50.074;19.920;2022-12-18T07:22:38;54.43;;;17.57;;
19919;SDS011;10122;50.074;19.920;2022-12-18T07:25:04;52.00;;;17.83;;
19919;SDS011;10122;50.074;19.920;2022-12-18T07:27:30;54.43;;;17.70;;
19919;SDS011;10122;50.074;19.920;2022-12-18T07:29:55;56.03;;;17.47;;
19919;SDS011;10122;50.074;19.920;2022-12-18T07:32:21;55.23;;;17.43;;
19919;SDS011;10122;50.074;19.920;2022-12-18T07:34:47;55.13;;;16.90;;
19919;SDS011;10122;50.074;19.920;2022-12-18T07:37:12;51.17;;;17.50;;
19919;SDS011;10122;50.074;19.920;2022-12-18T07:39:38;62.13;;;19.17;;
19919;SDS011;10122;50.074;19.920;2022-12-18T07:42:03;58.60;;;18.23;;
19919;SDS011;10122;50.074;19.920;2022-12-18T07:44:47;55.30;;;18.17;;
19919;SDS011;10122;50.074;19.920;2022-12-18T07:47:13;55.20;;;18.07;;
19919;SDS011;10122;50.074;19.920;2022-12-18T07:49:39;63.50;;;19.37;;
19919;SDS011;10122;50.074;19.920;2022-12-18T07:52:04;55.27;;;17.07;;
19919;SDS011;10122;50.074;19.920;2022-12-18T07:54:30;50.57;;;17.23;;
19919;SDS011;10122;50.074;19.920;2022-12-18T07:56:56;48.83;;;16.77;;
19919;SDS011;10122;50.074;19.920;2022-12-18T07:59:21;55.23;;;17.03;;
19919;SDS011;10122;50.074;19.920;2022-12-18T08:01:47;55.73;;;17.33;;
19919;SDS011;10122;50.074;19.920;2022-12-18T08:04:13;52.27;;;17.47;;
19919;SDS011;10122;50.074;19.920;2022-12-18T08:06:38;53.33;;;16.40;;
19919;SDS011;10122;50.074;19.920;2022-12-18T08:09:04;54.83;;;17.17;;
19919;SDS011;10122;50.074;19.920;2022-12-18T08:11:30;48.50;;;15.97;;
19919;SDS011;10122;50.074;19.920;2022-12-18T08:13:56;53.30;;;17.40;;
19919;SDS011;10122;50.074;19.920;2022-12-18T08:16:23;53.93;;;17.13;;
19919;SDS011;10122;50.074;19.920;2022-12-18T08:18:49;55.70;;;17.50;;
19919;SDS011;10122;50.074;19.920;2022-12-18T08:21:18;56.27;;;17.37;;
19919;SDS011;10122;50.074;19.920;2022-12-18T08:23:49;56.73;;;17.80;;
19919;SDS011;10122;50.074;19.920;2022-12-18T08:26:15;62.50;;;18.80;;
19919;SDS011;10122;50.074;19.920;2022-12-18T08:28:41;62.60;;;18.77;;
19919;SDS011;10122;50.074;19.920;2022-12-18T08:31:07;54.80;;;18.30;;
19919;SDS011;10122;50.074;19.920;2022-12-18T08:33:33;63.73;;;18.67;;
19919;SDS011;10122;50.074;19.920;2022-12-18T08:36:00;57.20;;;18.53;;
19919;SDS011;10122;50.074;19.920;2022-12-18T08:38:27;57.87;;;18.63;;
19919;SDS011;10122;50.074;19.920;2022-12-18T08:40:59;54.17;;;17.13;;
19919;SDS011;10122;50.074;19.920;2022-12-18T08:43:29;58.87;;;17.07;;
19919;SDS011;10122;50.074;19.920;2022-12-18T08:46:13;53.93;;;18.00;;
19919;SDS011;10122;50.074;19.920;2022-12-18T08:48:39;51.90;;;17.50;;
19919;SDS011;10122;50.074;19.920;2022-12-18T08:51:04;49.87;;;17.37;;
19919;SDS011;10122;50.074;19.920;2022-12-18T08:53:30;50.63;;;17.07;;
19919;SDS011;10122;50.074;19.920;2022-12-18T08:55:56;55.07;;;17.03;;
19919;SDS011;10122;50.074;19.920;2022-12-18T08:58:22;56.50;;;18.00;;
19919;SDS011;10122;50.074;19.920;2022-12-18T09:00:48;51.80;;;16.67;;
19919;SDS011;10122;50.074;19.920;2022-12-18T09:03:14;51.60;;;16.93;;
19919;SDS011;10122;50.074;19.920;2022-12-18T09:05:42;54.07;;;17.47;;
19919;SDS011;10122;50.074;19.920;2022-12-18T09:08:08;53.63;;;16.60;;
19919;SDS011;10122;50.074;19.920;2022-12-18T09:10:34;56.13;;;18.10;;
19919;SDS011;10122;50.074;19.920;2022-12-18T09:13:06;54.50;;;18.20;;
19919;SDS011;10122;50.074;19.920;2022-12-18T09:15:31;50.30;;;16.97;;
19919;SDS011;10122;50.074;19.920;2022-12-18T09:17:57;58.63;;;18.77;;
19919;SDS011;10122;50.074;19.920;2022-12-18T09:20:23;54.27;;;18.20;;
19919;SDS011;10122;50.074;19.920;2022-12-18T09:22:49;50.83;;;16.63;;
19919;SDS011;10122;50.074;19.920;2022-12-18T09:25:15;52.23;;;17.77;;
19919;SDS011;10122;50.074;19.920;2022-12-18T09:27:40;52.83;;;18.33;;
19919;SDS011;10122;50.074;19.920;2022-12-18T09:30:06;51.97;;;16.60;;
19919;SDS011;10122;50.074;19.920;2022-12-18T09:32:33;51.57;;;16.80;;
19919;SDS011;10122;50.074;19.920;2022-12-18T09:34:58;54.13;;;17.43;;
19919;SDS011;10122;50.074;19.920;2022-12-18T09:37:24;54.00;;;17.60;;
19919;SDS011;10122;50.074;19.920;2022-12-18T09:39:50;55.17;;;17.10;;
19919;SDS011;10122;50.074;19.920;2022-12-18T09:42:25;51.07;;;17.77;;
19919;SDS011;10122;50.074;19.920;2022-12-18T09:44:52;55.67;;;17.90;;
19919;SDS011;10122;50.074;19.920;2022-12-18T09:47:25;48.77;;;16.97;;
19919;SDS011;10122;50.074;19.920;2022-12-18T09:49:59;53.77;;;17.70;;
19919;SDS011;10122;50.074;19.920;2022-12-18T09:52:39;55.10;;;17.57;;
19919;SDS011;10122;50.074;19.920;2022-12-18T09:57:53;56.10;;;17.70;;
19919;SDS011;10122;50.074;19.920;2022-12-18T10:00:23;52.07;;;16.70;;
19919;SDS011;10122;50.074;19.920;2022-12-18T10:02:53;48.93;;;16.43;;
19919;SDS011;10122;50.074;19.920;2022-12-18T10:08:19;50.43;;;16.10;;
19919;SDS011;10122;50.074;19.920;2022-12-18T10:11:43;42.73;;;15.33;;
19919;SDS011;10122;50.074;19.920;2022-12-18T10:14:06;45.13;;;15.00;;
19919;SDS011;10122;50.074;19.920;2022-12-18T10:19:44;42.97;;;14.70;;
19919;SDS011;10122;50.074;19.920;2022-12-18T10:25:26;46.37;;;19.20;;
19919;SDS011;10122;50.074;19.920;2022-12-18T10:27:59;46.03;;;15.23;;
19919;SDS011;10122;50.074;19.920;2022-12-18T10:30:32;37.27;;;13.80;;
19919;SDS011;10122;50.074;19.920;2022-12-18T10:33:01;40.73;;;13.67;;
19919;SDS011;10122;50.074;19.920;2022-12-18T10:35:28;43.37;;;14.90;;
19919;SDS011;10122;50.074;19.920;2022-12-18T10:40:53;33.70;;;10.13;;
19919;SDS011;10122;50.074;19.920;2022-12-18T10:43:20;35.90;;;11.50;;
19919;SDS011;10122;50.074;19.920;2022-12-18T10:48:35;32.73;;;11.40;;
19919;SDS011;10122;50.074;19.920;2022-12-18T10:51:11;30.77;;;11.33;;
19919;SDS011;10122;50.074;19.920;2022-12-18T10:53:50;32.27;;;10.77;;
19919;SDS011;10122;50.074;19.920;2022-12-18T10:56:27;28.00;;;9.77;;
19919;SDS011;10122;50.074;19.920;2022-12-18T10:58:59;28.73;;;9.60;;
19919;SDS011;10122;50.074;19.920;2022-12-18T11:04:22;26.90;;;9.63;;
19919;SDS011;10122;50.074;19.920;2022-12-18T11:09:26;30.20;;;10.87;;
19919;SDS011;10122;50.074;19.920;2022-12-18T11:11:58;30.80;;;9.67;;
19919;SDS011;10122;50.074;19.920;2022-12-18T11:16:54;25.70;;;9.47;;
19919;SDS011;10122;50.074;19.920;2022-12-18T11:19:24;30.70;;;10.13;;
19919;SDS011;10122;50.074;19.920;2022-12-18T11:21:51;29.83;;;9.93;;
19919;SDS011;10122;50.074;19.920;2022-12-18T11:24:19;24.23;;;9.17;;
19919;SDS011;10122;50.074;19.920;2022-12-18T11:26:53;26.00;;;9.43;;
19919;SDS011;10122;50.074;19.920;2022-12-18T11:29:23;27.37;;;9.77;;
19919;SDS011;10122;50.074;19.920;2022-12-18T11:32:39;29.70;;;9.87;;
19919;SDS011;10122;50.074;19.920;2022-12-18T11:34:39;27.47;;;9.23;;
19919;SDS011;10122;50.074;19.920;2022-12-18T11:37:13;26.90;;;10.00;;
19919;SDS011;10122;50.074;19.920;2022-12-18T11:39:51;27.50;;;9.27;;
19919;SDS011;10122;50.074;19.920;2022-12-18T11:45:26;30.87;;;10.17;;
19919;SDS011;10122;50.074;19.920;2022-12-18T11:48:02;28.87;;;10.37;;
19919;SDS011;10122;50.074;19.920;2022-12-18T11:53:11;29.83;;;10.97;;
19919;SDS011;10122;50.074;19.920;2022-12-18T12:01:18;28.90;;;10.63;;
19919;SDS011;10122;50.074;19.920;2022-12-18T12:03:58;34.30;;;11.50;;
19919;SDS011;10122;50.074;19.920;2022-12-18T12:06:48;34.17;;;11.50;;
19919;SDS011;10122;50.074;19.920;2022-12-18T12:29:01;34.13;;;10.43;;
19919;SDS011;10122;50.074;19.920;2022-12-18T12:40:16;29.93;;;10.60;;
19919;SDS011;10122;50.074;19.920;2022-12-18T12:42:48;27.80;;;10.30;;
19919;SDS011;10122;50.074;19.920;2022-12-18T12:48:47;29.67;;;10.83;;
19919;SDS011;10122;50.074;19.920;2022-12-18T12:53:48;34.80;;;12.13;;
19919;SDS011;10122;50.074;19.920;2022-12-18T12:56:16;32.37;;;11.50;;
19919;SDS011;10122;50.074;19.920;2022-12-18T12:58:55;31.90;;;11.17;;
19919;SDS011;10122;50.074;19.920;2022-12-18T13:06:54;33.33;;;12.07;;
19919;SDS011;10122;50.074;19.920;2022-12-18T13:10:10;30.70;;;11.50;;
19919;SDS011;10122;50.074;19.920;2022-12-18T13:20:36;34.07;;;12.13;;
19919;SDS011;10122;50.074;19.920;2022-12-18T13:25:58;36.90;;;15.53;;
19919;SDS011;10122;50.074;19.920;2022-12-18T13:34:27;37.70;;;16.10;;
19919;SDS011;10122;50.074;19.920;2022-12-18T13:39:57;42.17;;;15.80;;
19919;SDS011;10122;50.074;19.920;2022-12-18T13:48:03;43.57;;;17.23;;
19919;SDS011;10122;50.074;19.920;2022-12-18T13:50:29;40.37;;;14.33;;
19919;SDS011;10122;50.074;19.920;2022-12-18T13:52:55;39.40;;;13.83;;
19919;SDS011;10122;50.074;19.920;2022-12-18T13:55:22;41.53;;;14.03;;
19919;SDS011;10122;50.074;19.920;2022-12-18T13:57:48;38.23;;;14.17;;
19919;SDS011;10122;50.074;19.920;2022-12-18T14:00:29;37.23;;;13.90;;
19919;SDS011;10122;50.074;19.920;2022-12-18T14:02:59;39.37;;;14.33;;
19919;SDS011;10122;50.074;19.920;2022-12-18T14:07:54;40.63;;;14.60;;
19919;SDS011;10122;50.074;19.920;2022-12-18T14:10:25;42.23;;;14.67;;
19919;SDS011;10122;50.074;19.920;2022-12-18T14:12:51;35.43;;;13.83;;
19919;SDS011;10122;50.074;19.920;2022-12-18T14:15:39;40.67;;;15.77;;
19919;SDS011;10122;50.074;19.920;2022-12-18T14:20:48;44.20;;;14.27;;
19919;SDS011;10122;50.074;19.920;2022-12-18T14:31:46;41.03;;;14.23;;
19919;SDS011;10122;50.074;19.920;2022-12-18T14:34:31;40.63;;;14.57;;
19919;SDS011;10122;50.074;19.920;2022-12-18T14:36:57;43.60;;;15.97;;
19919;SDS011;10122;50.074;19.920;2022-12-18T14:39:23;43.30;;;14.60;;
19919;SDS011;10122;50.074;19.920;2022-12-18T14:41:50;48.43;;;17.93;;
19919;SDS011;10122;50.074;19.920;2022-12-18T14:44:16;42.10;;;15.37;;
19919;SDS011;10122;50.074;19.920;2022-12-18T14:46:43;46.03;;;16.57;;
19919;SDS011;10122;50.074;19.920;2022-12-18T14:49:23;43.77;;;14.60;;
19919;SDS011;10122;50.074;19.920;2022-12-18T14:51:59;41.50;;;14.03;;
19919;SDS011;10122;50.074;19.920;2022-12-18T14:54:28;35.33;;;13.10;;
19919;SDS011;10122;50.074;19.920;2022-12-18T14:57:18;50.40;;;17.33;;
19919;SDS011;10122;50.074;19.920;2022-12-18T14:59:48;51.13;;;16.93;;
19919;SDS011;10122;50.074;19.920;2022-12-18T15:04:46;55.17;;;18.40;;
19919;SDS011;10122;50.074;19.920;2022-12-18T15:07:16;50.40;;;18.67;;
19919;SDS011;10122;50.074;19.920;2022-12-18T15:14:59;48.20;;;17.80;;
19919;SDS011;10122;50.074;19.920;2022-12-18T15:17:24;52.67;;;18.90;;
19919;SDS011;10122;50.074;19.920;2022-12-18T15:19:52;49.97;;;17.37;;
19919;SDS011;10122;50.074;19.920;2022-12-18T15:22:27;47.43;;;17.47;;
19919;SDS011;10122;50.074;19.920;2022-12-18T15:24:55;48.13;;;17.13;;
19919;SDS011;10122;50.074;19.920;2022-12-18T15:27:27;55.93;;;18.97;;
19919;SDS011;10122;50.074;19.920;2022-12-18T15:30:15;52.03;;;18.10;;
19919;SDS011;10122;50.074;19.920;2022-12-18T15:32:45;48.53;;;16.63;;
19919;SDS011;10122;50.074;19.920;2022-12-18T15:35:16;48.57;;;17.70;;
19919;SDS011;10122;50.074;19.920;2022-12-18T15:37:46;52.67;;;17.43;;
19919;SDS011;10122;50.074;19.920;2022-12-18T15:40:17;49.37;;;17.10;;
19919;SDS011;10122;50.074;19.920;2022-12-18T15:42:47;47.53;;;16.77;;
19919;SDS011;10122;50.074;19.920;2022-12-18T15:45:32;53.53;;;19.57;;
19919;SDS011;10122;50.074;19.920;2022-12-18T15:47:58;49.67;;;18.43;;
19919;SDS011;10122;50.074;19.920;2022-12-18T15:50:24;60.10;;;18.93;;
19919;SDS011;10122;50.074;19.920;2022-12-18T15:52:51;50.00;;;17.33;;
19919;SDS011;10122;50.074;19.920;2022-12-18T15:55:21;50.93;;;17.43;;
19919;SDS011;10122;50.074;19.920;2022-12-18T15:58:08;53.47;;;18.43;;
19919;SDS011;10122;50.074;19.920;2022-12-18T16:00:36;54.07;;;18.80;;
19919;SDS011;10122;50.074;19.920;2022-12-18T16:03:04;55.23;;;18.87;;
19919;SDS011;10122;50.074;19.920;2022-12-18T16:05:31;54.37;;;19.93;;
19919;SDS011;10122;50.074;19.920;2022-12-18T16:07:57;53.43;;;19.03;;
19919;SDS011;10122;50.074;19.920;2022-12-18T16:10:24;57.17;;;20.03;;
19919;SDS011;10122;50.074;19.920;2022-12-18T16:12:50;56.80;;;19.07;;
19919;SDS011;10122;50.074;19.920;2022-12-18T16:15:16;55.03;;;19.73;;
19919;SDS011;10122;50.074;19.920;2022-12-18T16:17:42;40.13;;;13.93;;
19919;SDS011;10122;50.074;19.920;2022-12-18T16:20:16;54.13;;;17.70;;
19919;SDS011;10122;50.074;19.920;2022-12-18T16:22:43;60.83;;;20.67;;
19919;SDS011;10122;50.074;19.920;2022-12-18T16:25:20;58.23;;;19.13;;
19919;SDS011;10122;50.074;19.920;2022-12-18T16:27:51;58.13;;;18.90;;
19919;SDS011;10122;50.074;19.920;2022-12-18T16:30:20;48.20;;;16.47;;
19919;SDS011;10122;50.074;19.920;2022-12-18T16:32:56;56.20;;;17.80;;
19919;SDS011;10122;50.074;19.920;2022-12-18T16:35:24;52.40;;;17.37;;
19919;SDS011;10122;50.074;19.920;2022-12-18T16:37:51;43.97;;;14.93;;
19919;SDS011;10122;50.074;19.920;2022-12-18T16:40:17;57.17;;;18.90;;
19919;SDS011;10122;50.074;19.920;2022-12-18T16:42:44;54.03;;;20.17;;
19919;SDS011;10122;50.074;19.920;2022-12-18T16:45:11;50.17;;;17.90;;
19919;SDS011;10122;50.074;19.920;2022-12-18T16:47:40;58.67;;;20.67;;
19919;SDS011;10122;50.074;19.920;2022-12-18T16:50:06;60.67;;;21.43;;
19919;SDS011;10122;50.074;19.920;2022-12-18T16:52:33;59.10;;;19.93;;